Time;durP1;ratioP1;P1;durP2;ratioP2;P2;SDS_P1;SDS_P2;PMS_P1;PMS_P2;Temp;Humidity;BMP_temperature;BMP_pressure;BME280_temperature;BME280_humidity;BME280_pressure;Samples;Min_cycle;Max_cycle;Signal;HPM_P1;HPM_P2
2024/01/26 00:00:58;;;;;;;;;;;6.30;99.90;;;;;;5042537;28;20037;-67
2024/01/26 00:03:24;;;;;;;4.97;2.40;;;6.30;99.90;;;;;;5038568;28;19925;-66
2024/01/26 00:05:49;;;;;;;2.53;1.55;;;6.40;99.90;;;;;;5049290;28;20048;-66
2024/01/26 00:08:15;;;;;;;5.28;1.75;;;6.40;99.90;;;;;;5059481;28;20060;-67
2024/01/26 00:10:40;;;;;;;3.97;2.08;;;6.50;99.90;;;;;;5060612;28;20593;-66
2024/01/26 00:13:06;;;;;;;3.03;1.67;;;6.50;99.90;;;;;;5040712;28;20041;-67
2024/01/26 00:15:31;;;;;;;3.92;2.58;;;6.60;99.90;;;;;;5063169;28;20036;-65
2024/01/26 00:17:57;;;;;;;3.22;2.50;;;6.60;99.90;;;;;;5055825;28;20428;-67
2024/01/26 00:20:22;;;;;;;;;;;6.60;99.90;;;;;;5049748;28;20078;-66
2024/01/26 00:22:49;;;;;;;3.97;2.35;;;6.60;99.90;;;;;;5046474;28;19999;-66
2024/01/26 00:25:14;;;;;;;4.70;2.00;;;6.60;99.90;;;;;;5050017;28;20416;-67
2024/01/26 00:27:40;;;;;;;5.78;2.50;;;6.60;99.90;;;;;;5046987;28;20047;-67
2024/01/26 00:30:09;;;;;;;;;;;6.60;99.90;;;;;;5047064;28;20060;-67
2024/01/26 00:32:35;;;;;;;5.45;2.22;;;6.60;99.90;;;;;;5064024;28;19916;-66
2024/01/26 00:35:00;;;;;;;5.85;2.40;;;6.60;99.90;;;;;;5069486;28;20039;-67
2024/01/26 00:37:26;;;;;;;;;;;6.60;99.90;;;;;;5068910;28;20404;-67
2024/01/26 00:39:51;;;;;;;4.55;2.17;;;6.70;99.90;;;;;;5068913;28;20304;-67
2024/01/26 00:42:17;;;;;;;3.97;1.73;;;6.70;99.90;;;;;;5062627;28;20067;-66
2024/01/26 00:44:42;;;;;;;3.55;2.10;;;6.70;99.90;;;;;;5070830;28;20036;-66
2024/01/26 00:47:09;;;;;;;6.00;1.73;;;6.70;99.90;;;;;;5065353;28;20045;-66
2024/01/26 00:49:34;;;;;;;3.05;1.63;;;6.80;99.90;;;;;;5067841;28;20055;-67
2024/01/26 00:52:00;;;;;;;2.67;1.92;;;6.80;99.90;;;;;;5066233;28;20040;-65
2024/01/26 00:54:25;;;;;;;3.97;1.77;;;6.90;99.90;;;;;;5065276;28;20036;-66
2024/01/26 00:56:51;;;;;;;3.70;1.90;;;6.80;99.90;;;;;;5068498;28;20450;-66
2024/01/26 00:59:17;;;;;;;2.80;1.55;;;6.90;99.90;;;;;;5065160;28;20089;-66
2024/01/26 01:01:42;;;;;;;2.63;1.50;;;6.80;99.90;;;;;;5067569;28;20468;-67
2024/01/26 01:04:08;;;;;;;1.92;1.38;;;6.80;99.90;;;;;;5051498;28;20508;-67
2024/01/26 01:06:33;;;;;;;;;;;6.90;99.90;;;;;;5068902;28;20044;-66
2024/01/26 01:08:59;;;;;;;1.90;1.10;;;6.90;99.90;;;;;;5063583;28;19983;-67
2024/01/26 01:11:25;;;;;;;0.95;0.75;;;6.90;99.90;;;;;;5073756;28;20623;-67
2024/01/26 01:13:50;;;;;;;1.25;0.68;;;6.90;99.90;;;;;;5064623;28;20036;-67
2024/01/26 01:16:17;;;;;;;1.98;0.90;;;6.90;99.90;;;;;;5069472;28;20043;-67
2024/01/26 01:18:43;;;;;;;1.13;0.50;;;6.90;99.90;;;;;;5068081;28;20064;-68
2024/01/26 01:21:08;;;;;;;0.82;0.63;;;6.90;99.90;;;;;;5066288;28;20131;-66
2024/01/26 01:23:34;;;;;;;;;;;6.90;99.90;;;;;;5064457;28;20045;-65
2024/01/26 01:25:59;;;;;;;0.80;0.32;;;6.90;99.90;;;;;;5067592;28;19924;-67
2024/01/26 01:28:25;;;;;;;;;;;6.90;99.90;;;;;;5063234;28;20595;-66
2024/01/26 01:30:50;;;;;;;0.50;0.30;;;7.00;99.90;;;;;;5066571;28;19920;-67
2024/01/26 01:33:16;;;;;;;;;;;6.90;99.90;;;;;;5063707;28;20119;-66
2024/01/26 01:35:41;;;;;;;0.95;0.20;;;7.00;99.90;;;;;;5067783;28;19924;-67
2024/01/26 01:38:07;;;;;;;1.20;0.30;;;7.00;99.90;;;;;;5062963;28;20028;-66
2024/01/26 01:40:33;;;;;;;1.90;0.28;;;7.00;99.90;;;;;;5067517;28;20446;-67
2024/01/26 01:42:59;;;;;;;0.80;0.30;;;7.10;99.90;;;;;;5066605;28;20072;-68
2024/01/26 01:45:24;;;;;;;1.75;0.30;;;7.10;99.90;;;;;;5067408;28;20045;-65
2024/01/26 01:47:50;;;;;;;0.85;0.40;;;7.10;99.90;;;;;;5061979;28;20036;-66
2024/01/26 01:50:15;;;;;;;;;;;7.00;99.90;;;;;;5068113;28;20076;-66
2024/01/26 01:52:42;;;;;;;0.35;0.30;;;7.00;99.90;;;;;;5066266;28;19934;-67
2024/01/26 01:55:12;;;;;;;0.30;0.30;;;7.00;99.90;;;;;;5067647;28;20040;-67
2024/01/26 01:57:41;;;;;;;1.75;0.35;;;7.10;99.90;;;;;;5066352;28;20045;-67
2024/01/26 02:00:15;;;;;;;0.20;0.20;;;7.10;99.90;;;;;;5067628;28;20066;-67
2024/01/26 02:02:44;;;;;;;6.13;0.30;;;7.10;99.90;;;;;;5064738;28;20125;-68
2024/01/26 02:05:09;;;;;;;0.82;0.30;;;7.10;99.90;;;;;;5062200;28;20075;-66
2024/01/26 02:07:35;;;;;;;0.85;0.40;;;7.10;99.90;;;;;;5064548;28;20064;-66
2024/01/26 02:10:00;;;;;;;0.68;0.40;;;7.20;99.90;;;;;;5068419;28;20154;-67
2024/01/26 02:12:26;;;;;;;0.50;0.28;;;7.20;99.90;;;;;;5061561;28;20095;-67
2024/01/26 02:14:52;;;;;;;0.45;0.40;;;7.20;99.90;;;;;;5064559;28;20086;-67
2024/01/26 02:17:18;;;;;;;1.25;0.40;;;7.20;99.90;;;;;;5063401;28;20044;-67
2024/01/26 02:19:43;;;;;;;0.60;0.40;;;7.20;99.90;;;;;;5063434;28;20067;-67
2024/01/26 02:22:09;;;;;;;0.30;0.30;;;7.20;99.90;;;;;;5055427;28;20068;-66
2024/01/26 02:24:34;;;;;;;;;;;7.20;99.90;;;;;;5076012;28;20050;-66
2024/01/26 02:27:00;;;;;;;0.43;0.40;;;7.20;99.90;;;;;;5064549;28;19935;-66
2024/01/26 02:29:25;;;;;;;;;;;7.20;99.90;;;;;;5080864;28;20039;-67
2024/01/26 02:31:51;;;;;;;0.40;0.30;;;7.20;99.90;;;;;;5065827;28;19936;-66
2024/01/26 02:34:16;;;;;;;0.70;0.20;;;7.30;99.90;;;;;;5073926;28;20032;-66
2024/01/26 02:36:42;;;;;;;;;;;7.20;99.90;;;;;;5075048;28;20061;-66
2024/01/26 02:39:07;;;;;;;0.55;0.40;;;7.30;99.90;;;;;;5062516;28;19917;-68
2024/01/26 02:41:35;;;;;;;0.47;0.40;;;7.30;99.90;;;;;;5072089;28;20048;-67
2024/01/26 02:44:01;;;;;;;0.50;0.40;;;7.30;99.90;;;;;;5061554;28;20400;-67
2024/01/26 02:46:27;;;;;;;0.77;0.43;;;7.30;99.90;;;;;;5066973;28;20068;-68
2024/01/26 02:48:53;;;;;;;1.50;1.27;;;7.30;99.90;;;;;;5062924;28;20063;-67
2024/01/26 02:51:19;;;;;;;0.40;0.40;;;7.30;99.90;;;;;;5081738;28;20036;-69
2024/01/26 02:53:44;;;;;;;1.40;0.50;;;7.30;99.90;;;;;;5062117;28;20048;-68
2024/01/26 02:56:10;;;;;;;1.75;0.43;;;7.30;99.90;;;;;;5072087;28;20127;-67
2024/01/26 02:58:36;;;;;;;2.70;0.40;;;7.30;99.90;;;;;;5068268;28;20404;-66
2024/01/26 03:01:02;;;;;;;0.40;0.38;;;7.30;99.90;;;;;;5072606;28;20162;-67
2024/01/26 03:03:28;;;;;;;0.47;0.30;;;7.30;99.90;;;;;;5066714;28;20524;-67
2024/01/26 03:05:54;;;;;;;0.73;0.30;;;7.30;99.90;;;;;;5066438;28;20040;-67
2024/01/26 03:08:20;;;;;;;0.75;0.30;;;7.40;99.90;;;;;;5066370;28;20035;-66
2024/01/26 03:10:45;;;;;;;;;;;7.30;99.90;;;;;;5073521;28;20051;-67
2024/01/26 03:13:11;;;;;;;0.55;0.40;;;7.40;99.90;;;;;;5060595;28;20323;-67
2024/01/26 03:15:36;;;;;;;;;;;7.40;99.90;;;;;;5072616;28;20040;-66
2024/01/26 03:18:02;;;;;;;0.70;0.47;;;7.40;99.90;;;;;;5054665;28;19928;-67
2024/01/26 03:20:27;;;;;;;1.35;0.47;;;7.40;99.90;;;;;;5066274;28;20047;-67
2024/01/26 03:22:53;;;;;;;0.85;0.50;;;7.40;99.90;;;;;;5056642;28;20041;-68
2024/01/26 03:25:18;;;;;;;2.35;0.60;;;7.40;99.90;;;;;;5062488;28;20029;-66
2024/01/26 03:27:44;;;;;;;3.67;0.60;;;7.40;99.90;;;;;;5060891;28;20250;-67
2024/01/26 03:30:09;;;;;;;;;;;7.40;99.90;;;;;;5048774;28;20396;-66
2024/01/26 03:32:35;;;;;;;1.55;0.57;;;7.50;99.90;;;;;;5064649;28;19923;-67
2024/01/26 03:35:01;;;;;;;1.23;0.63;;;7.40;99.90;;;;;;5066096;28;20480;-67
2024/01/26 03:37:27;;;;;;;1.48;0.60;;;7.40;99.90;;;;;;5062900;28;20526;-67
2024/01/26 03:39:53;;;;;;;0.95;0.55;;;7.50;99.90;;;;;;5065668;28;20072;-67
2024/01/26 03:42:18;;;;;;;1.75;0.65;;;7.50;99.90;;;;;;5060867;28;20041;-67
2024/01/26 03:44:44;;;;;;;1.38;0.82;;;7.50;99.90;;;;;;5065351;28;20035;-67
2024/01/26 03:47:10;;;;;;;;;;;7.50;99.90;;;;;;5062473;28;20036;-67
2024/01/26 03:49:36;;;;;;;2.40;1.17;;;7.50;99.90;;;;;;5064084;28;19999;-67
2024/01/26 03:52:04;;;;;;;0.98;0.73;;;7.50;99.90;;;;;;5057045;28;20084;-67
2024/01/26 03:54:30;;;;;;;1.90;0.63;;;7.50;99.90;;;;;;5067900;28;20527;-67
2024/01/26 03:56:56;;;;;;;2.70;0.90;;;7.50;99.90;;;;;;5067786;28;20048;-67
2024/01/26 03:59:21;;;;;;;1.00;0.77;;;7.50;99.90;;;;;;5066327;28;20546;-67
2024/01/26 04:01:47;;;;;;;;;;;7.50;99.90;;;;;;5061359;28;20040;-67
2024/01/26 04:04:12;;;;;;;1.58;0.98;;;7.50;99.90;;;;;;5069006;28;20677;-67
2024/01/26 04:06:41;;;;;;;1.80;1.45;;;7.50;99.90;;;;;;5069035;28;20470;-67
2024/01/26 04:09:08;;;;;;;3.38;1.75;;;7.50;99.90;;;;;;5065950;28;20040;-67
2024/01/26 04:11:34;;;;;;;3.15;1.92;;;7.60;99.90;;;;;;5073548;28;20101;-64
2024/01/26 04:13:59;;;;;;;3.72;2.10;;;7.60;99.90;;;;;;5070350;28;20037;-66
2024/01/26 04:16:25;;;;;;;3.80;2.08;;;7.60;99.90;;;;;;5083086;28;20044;-69
2024/01/26 04:18:50;;;;;;;;;;;7.60;99.90;;;;;;5064301;28;20044;-67
2024/01/26 04:21:16;;;;;;;2.30;1.58;;;7.60;99.90;;;;;;5081051;28;19961;-66
2024/01/26 04:23:41;;;;;;;4.30;1.52;;;7.60;99.90;;;;;;5064738;28;20040;-67
2024/01/26 04:26:07;;;;;;;1.33;1.08;;;7.60;99.90;;;;;;5075996;28;20047;-67
2024/01/26 04:28:33;;;;;;;2.72;1.60;;;7.70;99.90;;;;;;5062589;28;20047;-67
2024/01/26 04:30:58;;;;;;;;;;;7.60;99.90;;;;;;5075202;28;20399;-67
2024/01/26 04:33:24;;;;;;;2.35;1.70;;;7.60;99.90;;;;;;5077994;28;19919;-67
2024/01/26 04:35:49;;;;;;;1.70;1.10;;;7.60;99.90;;;;;;5076749;28;20052;-67
2024/01/26 04:38:15;;;;;;;;;;;7.70;99.90;;;;;;5079178;28;20048;-66
2024/01/26 04:40:40;;;;;;;2.85;1.63;;;7.70;99.90;;;;;;5065045;28;19917;-66
2024/01/26 04:43:06;;;;;;;3.95;2.28;;;7.60;99.90;;;;;;5068694;28;20043;-66
2024/01/26 04:45:32;;;;;;;7.18;2.53;;;7.70;99.90;;;;;;5075271;28;20041;-66
2024/01/26 04:47:57;;;;;;;;;;;7.70;99.90;;;;;;5077288;28;20676;-68
2024/01/26 04:50:23;;;;;;;3.28;1.75;;;7.70;99.90;;;;;;5078144;28;19916;-66
2024/01/26 04:52:52;;;;;;;3.40;1.88;;;7.70;99.90;;;;;;5062976;28;20048;-65
2024/01/26 04:55:21;;;;;;;3.88;1.48;;;7.70;99.90;;;;;;5075051;28;20047;-66
2024/01/26 04:57:46;;;;;;;5.45;1.77;;;7.70;99.90;;;;;;5063000;28;20048;-67
2024/01/26 05:00:12;;;;;;;3.20;1.60;;;7.70;99.90;;;;;;5068768;28;20569;-66
2024/01/26 05:02:38;;;;;;;2.17;1.40;;;7.70;99.90;;;;;;5067720;28;20056;-66
2024/01/26 05:05:04;;;;;;;1.55;1.30;;;7.70;99.90;;;;;;5067468;28;20044;-66
2024/01/26 05:07:29;;;;;;;;;;;7.60;99.90;;;;;;5066816;28;20611;-67
2024/01/26 05:09:55;;;;;;;1.52;1.23;;;7.60;99.90;;;;;;5069125;28;19931;-67
2024/01/26 05:12:21;;;;;;;1.38;0.98;;;7.70;99.90;;;;;;5067902;28;20091;-67
2024/01/26 05:14:46;;;;;;;1.02;0.90;;;7.60;99.90;;;;;;5068272;28;20123;-67
2024/01/26 05:17:12;;;;;;;;;;;7.60;99.90;;;;;;5068106;28;20044;-66
2024/01/26 05:19:37;;;;;;;1.17;0.88;;;7.60;99.90;;;;;;5068404;28;19916;-66
2024/01/26 05:22:03;;;;;;;1.50;1.05;;;7.60;99.90;;;;;;5071252;28;20052;-66
2024/01/26 05:24:28;;;;;;;;;;;7.70;99.90;;;;;;5066533;28;20037;-66
2024/01/26 05:26:55;;;;;;;1.42;1.02;;;7.70;99.90;;;;;;5063796;28;19959;-66
2024/01/26 05:29:21;;;;;;;1.30;1.00;;;7.70;99.90;;;;;;5067727;28;20041;-67
2024/01/26 05:31:46;;;;;;;1.52;1.20;;;7.70;99.90;;;;;;5066591;28;20049;-67
2024/01/26 05:34:12;;;;;;;1.80;1.30;;;7.70;99.90;;;;;;5067694;28;20127;-67
2024/01/26 05:36:42;;;;;;;4.75;1.50;;;7.70;99.90;;;;;;5066424;28;20507;-66
2024/01/26 05:39:11;;;;;;;2.42;1.23;;;7.70;99.90;;;;;;5067076;28;20055;-66
2024/01/26 05:41:37;;;;;;;2.22;1.20;;;7.70;99.90;;;;;;5067794;28;20121;-66
2024/01/26 05:44:03;;;;;;;3.50;0.93;;;7.70;99.90;;;;;;5066595;28;20082;-66
2024/01/26 05:46:29;;;;;;;1.50;1.23;;;7.80;99.90;;;;;;5063420;28;20052;-66
2024/01/26 05:48:57;;;;;;;1.48;1.08;;;7.80;99.90;;;;;;5072722;28;20743;-67
2024/01/26 05:51:26;;;;;;;5.00;1.70;;;7.80;99.90;;;;;;5072032;28;20055;-66
2024/01/26 05:53:52;;;;;;;2.20;1.67;;;7.80;99.90;;;;;;5065481;28;20126;-67
2024/01/26 05:56:18;;;;;;;2.75;1.70;;;7.70;99.90;;;;;;5066402;28;20101;-67
2024/01/26 05:58:44;;;;;;;2.20;1.65;;;7.70;99.90;;;;;;5067096;28;20052;-66
2024/01/26 06:01:10;;;;;;;2.83;1.70;;;7.70;99.90;;;;;;5064292;28;20504;-66
2024/01/26 06:03:35;;;;;;;;;;;7.70;99.90;;;;;;5066396;28;20044;-66
2024/01/26 06:06:00;;;;;;;2.53;1.73;;;7.80;99.90;;;;;;5067163;28;19921;-66
2024/01/26 06:08:26;;;;;;;2.05;1.55;;;7.80;99.90;;;;;;5063618;28;20657;-66
2024/01/26 06:10:52;;;;;;;1.70;1.30;;;7.70;99.90;;;;;;5067367;28;20107;-66
2024/01/26 06:13:18;;;;;;;;;;;7.80;99.90;;;;;;5070381;28;20036;-67
2024/01/26 06:15:43;;;;;;;3.22;1.75;;;7.80;99.90;;;;;;5067617;28;20015;-66
2024/01/26 06:18:09;;;;;;;2.33;1.45;;;7.80;99.90;;;;;;5062810;28;20111;-66
2024/01/26 06:20:34;;;;;;;2.30;1.92;;;7.80;99.90;;;;;;5063893;28;20044;-66
2024/01/26 06:23:01;;;;;;;2.92;1.88;;;7.80;99.90;;;;;;5064793;28;20040;-66
2024/01/26 06:25:26;;;;;;;2.92;2.20;;;7.80;99.90;;;;;;5071955;28;20043;-66
2024/01/26 06:27:52;;;;;;;2.47;2.00;;;7.80;99.90;;;;;;5064614;28;20036;-66
2024/01/26 06:30:18;;;;;;;4.63;2.03;;;7.80;99.90;;;;;;5062225;28;20032;-66
2024/01/26 06:32:44;;;;;;;;;;;7.80;99.90;;;;;;5066663;28;20052;-67
2024/01/26 06:35:10;;;;;;;3.28;2.22;;;7.80;99.90;;;;;;5073072;28;20510;-66
2024/01/26 06:37:35;;;;;;;2.83;2.00;;;7.80;99.90;;;;;;5067295;28;20051;-66
2024/01/26 06:40:01;;;;;;;2.05;1.58;;;7.90;99.90;;;;;;5070608;28;20052;-66
2024/01/26 06:42:26;;;;;;;2.60;1.80;;;7.80;99.90;;;;;;5068876;28;20120;-66
2024/01/26 06:44:53;;;;;;;3.15;1.88;;;7.80;99.90;;;;;;5066999;28;20033;-66
2024/01/26 06:47:19;;;;;;;1.75;1.40;;;7.90;99.90;;;;;;5064815;28;20036;-65
2024/01/26 06:49:45;;;;;;;2.78;1.50;;;7.90;99.90;;;;;;5070479;28;20040;-66
2024/01/26 06:52:10;;;;;;;2.05;1.52;;;7.80;99.90;;;;;;5070485;28;20124;-66
2024/01/26 06:54:38;;;;;;;1.65;1.10;;;7.80;99.90;;;;;;5068500;28;20094;-65
2024/01/26 06:57:04;;;;;;;1.92;1.42;;;7.80;99.90;;;;;;5065432;28;20032;-66
2024/01/26 06:59:30;;;;;;;1.95;1.40;;;7.80;99.90;;;;;;5066841;28;20566;-65
2024/01/26 07:01:55;;;;;;;2.38;1.50;;;7.90;99.90;;;;;;5064585;28;20040;-65
2024/01/26 07:04:21;;;;;;;1.90;1.60;;;7.80;99.90;;;;;;5067130;28;20511;-65
2024/01/26 07:06:46;;;;;;;3.67;1.80;;;7.90;99.90;;;;;;5066026;28;20044;-65
2024/01/26 07:09:12;;;;;;;2.65;1.95;;;7.90;99.90;;;;;;5065621;28;20098;-66
2024/01/26 07:11:38;;;;;;;3.92;1.88;;;7.90;99.90;;;;;;5067611;28;20044;-65
2024/01/26 07:14:05;;;;;;;2.65;2.00;;;7.90;99.90;;;;;;5066128;28;20048;-66
2024/01/26 07:16:30;;;;;;;2.53;1.88;;;7.90;99.90;;;;;;5069547;28;20056;-66
2024/01/26 07:18:56;;;;;;;2.15;1.60;;;7.90;99.90;;;;;;5064771;28;20048;-66
2024/01/26 07:21:21;;;;;;;2.28;1.80;;;7.90;99.90;;;;;;5066202;28;20517;-66
2024/01/26 07:23:49;;;;;;;2.00;1.45;;;7.90;99.90;;;;;;5064940;28;20483;-65
2024/01/26 07:26:19;;;;;;;3.83;1.65;;;7.90;99.90;;;;;;5066092;28;20419;-66
2024/01/26 07:28:45;;;;;;;2.22;1.60;;;7.90;99.90;;;;;;5067644;28;20059;-66
2024/01/26 07:31:11;;;;;;;1.85;1.25;;;7.90;99.90;;;;;;5070455;28;20046;-65
2024/01/26 07:33:36;;;;;;;2.28;1.63;;;7.90;99.90;;;;;;5069070;28;20044;-66
2024/01/26 07:36:02;;;;;;;3.92;1.70;;;7.90;99.90;;;;;;5070435;28;20080;-66
2024/01/26 07:38:28;;;;;;;;;;;7.90;99.90;;;;;;5069441;28;20058;-66
2024/01/26 07:40:53;;;;;;;3.00;1.80;;;8.00;99.90;;;;;;5070775;28;19920;-66
2024/01/26 07:43:19;;;;;;;2.47;1.70;;;8.00;99.90;;;;;;5064503;28;20408;-66
2024/01/26 07:45:45;;;;;;;5.32;1.60;;;8.00;99.90;;;;;;5070513;28;20539;-65
2024/01/26 07:48:12;;;;;;;2.00;1.63;;;8.00;99.90;;;;;;5072903;28;20119;-65
2024/01/26 07:50:43;;;;;;;2.92;1.90;;;8.00;99.90;;;;;;5073329;28;20499;-66
2024/01/26 07:53:09;;;;;;;3.22;1.60;;;8.00;99.90;;;;;;5066996;28;20051;-66
2024/01/26 07:55:35;;;;;;;3.20;2.10;;;8.00;99.90;;;;;;5069999;28;20045;-66
2024/01/26 07:58:00;;;;;;;4.72;1.90;;;8.00;99.90;;;;;;5064912;28;20040;-65
2024/01/26 08:00:26;;;;;;;;;;;8.00;99.90;;;;;;5069476;28;20040;-66
2024/01/26 08:02:52;;;;;;;4.13;2.50;;;8.00;99.90;;;;;;5067106;28;20081;-65
2024/01/26 08:05:17;;;;;;;2.67;1.65;;;8.00;99.90;;;;;;5069804;28;20036;-65
2024/01/26 08:07:43;;;;;;;2.03;1.83;;;8.00;99.90;;;;;;5066774;28;20032;-65
2024/01/26 08:10:11;;;;;;;2.58;1.58;;;8.10;99.90;;;;;;5072083;28;20502;-66
2024/01/26 08:12:37;;;;;;;2.00;1.50;;;8.10;99.90;;;;;;5064667;28;20032;-65
2024/01/26 08:15:06;;;;;;;2.33;1.58;;;8.20;99.90;;;;;;5067832;28;20042;-66
2024/01/26 08:17:33;;;;;;;5.10;1.45;;;8.10;99.90;;;;;;5064715;28;20045;-67
2024/01/26 08:19:59;;;;;;;2.67;1.60;;;8.20;99.90;;;;;;5070617;28;20040;-64
2024/01/26 08:22:25;;;;;;;4.00;1.60;;;8.20;99.90;;;;;;5064410;28;20048;-65
2024/01/26 08:24:51;;;;;;;2.55;1.52;;;8.20;99.90;;;;;;5071099;28;20044;-65
2024/01/26 08:27:17;;;;;;;3.50;1.20;;;8.20;99.90;;;;;;5068487;28;20037;-66
2024/01/26 08:29:42;;;;;;;3.38;1.50;;;8.20;99.90;;;;;;5069337;28;20063;-65
2024/01/26 08:32:08;;;;;;;3.22;1.52;;;8.30;99.90;;;;;;5067003;28;20084;-66
2024/01/26 08:34:36;;;;;;;6.15;1.83;;;8.30;99.90;;;;;;5066728;28;20041;-66
2024/01/26 08:37:01;;;;;;;1.55;1.20;;;8.30;99.90;;;;;;5068359;28;20052;-66
2024/01/26 08:39:27;;;;;;;1.77;1.23;;;8.30;99.90;;;;;;5069639;28;20040;-66
2024/01/26 08:41:53;;;;;;;;;;;8.30;99.90;;;;;;5066882;28;20405;-66
2024/01/26 08:44:18;;;;;;;1.83;1.25;;;8.30;99.90;;;;;;5067158;28;19923;-65
2024/01/26 08:46:45;;;;;;;6.07;1.30;;;8.30;99.90;;;;;;5068247;28;20106;-66
2024/01/26 08:49:10;;;;;;;1.77;1.20;;;8.40;99.90;;;;;;5067287;28;20037;-66
2024/01/26 08:51:36;;;;;;;3.47;1.27;;;8.30;99.90;;;;;;5068848;28;20035;-66
2024/01/26 08:54:02;;;;;;;2.13;1.33;;;8.30;99.90;;;;;;5065090;28;20048;-66
2024/01/26 08:56:27;;;;;;;2.55;1.23;;;8.40;99.90;;;;;;5068242;28;20045;-66
2024/01/26 08:58:54;;;;;;;3.17;1.38;;;8.30;99.90;;;;;;5067958;28;20086;-66
2024/01/26 09:01:20;;;;;;;2.20;1.17;;;8.30;99.90;;;;;;5067792;28;20039;-66
2024/01/26 09:03:46;;;;;;;2.55;1.02;;;8.30;99.90;;;;;;5065339;28;20040;-66
2024/01/26 09:06:11;;;;;;;;;;;8.40;99.90;;;;;;5071190;28;20036;-66
2024/01/26 09:08:37;;;;;;;2.85;0.95;;;8.40;99.90;;;;;;5071337;28;19915;-66
2024/01/26 09:11:02;;;;;;;2.05;0.98;;;8.30;99.90;;;;;;5073630;28;20089;-66
2024/01/26 09:13:28;;;;;;;;;;;8.30;99.90;;;;;;5067570;28;20071;-67
2024/01/26 09:15:54;;;;;;;2.85;0.80;;;8.30;99.90;;;;;;5069056;28;20357;-67
2024/01/26 09:18:22;;;;;;;1.20;0.80;;;8.30;99.90;;;;;;5067428;28;20109;-67
2024/01/26 09:20:49;;;;;;;1.38;0.90;;;8.30;99.90;;;;;;5069085;28;20032;-66
2024/01/26 09:23:15;;;;;;;3.78;0.60;;;8.30;99.90;;;;;;5064288;28;20038;-66
2024/01/26 09:25:42;;;;;;;2.10;0.57;;;8.30;99.90;;;;;;5064138;28;20553;-66
2024/01/26 09:28:07;;;;;;;0.88;0.50;;;8.30;99.90;;;;;;5063675;28;20402;-66
2024/01/26 09:30:33;;;;;;;1.10;0.50;;;8.30;99.90;;;;;;5064656;28;20033;-66
2024/01/26 09:32:59;;;;;;;0.93;0.60;;;8.30;99.90;;;;;;5066268;28;20081;-66
2024/01/26 09:35:24;;;;;;;;;;;8.40;99.90;;;;;;5069575;28;20044;-66
2024/01/26 09:37:50;;;;;;;1.10;0.38;;;8.40;99.90;;;;;;5063745;28;19921;-66
2024/01/26 09:40:16;;;;;;;;;;;8.40;99.90;;;;;;5065225;28;20064;-66
2024/01/26 09:42:42;;;;;;;0.55;0.40;;;8.40;99.90;;;;;;5063386;28;19928;-66
2024/01/26 09:45:08;;;;;;;;;;;8.40;99.90;;;;;;5065782;28;20033;-66
2024/01/26 09:47:35;;;;;;;1.10;0.50;;;8.40;99.90;;;;;;5064798;28;19963;-66
2024/01/26 09:50:05;;;;;;;0.63;0.38;;;8.50;99.90;;;;;;5066321;28;20127;-66
2024/01/26 09:52:32;;;;;;;0.93;0.30;;;8.50;99.90;;;;;;5066226;28;20049;-66
2024/01/26 09:55:01;;;;;;;0.90;0.30;;;8.50;99.90;;;;;;5067812;28;20049;-66
2024/01/26 09:57:27;;;;;;;0.60;0.30;;;8.60;99.90;;;;;;5063135;28;20114;-67
2024/01/26 09:59:53;;;;;;;1.02;0.20;;;8.60;99.90;;;;;;5067038;28;20040;-65
2024/01/26 10:02:21;;;;;;;0.47;0.35;;;8.70;99.90;;;;;;5062040;28;20060;-65
2024/01/26 10:04:47;;;;;;;0.65;0.40;;;8.70;99.90;;;;;;5067087;28;20490;-66
2024/01/26 10:07:14;;;;;;;0.50;0.40;;;8.80;99.90;;;;;;5059237;28;20098;-66
2024/01/26 10:09:40;;;;;;;0.30;0.30;;;8.80;99.90;;;;;;5067126;28;20036;-66
2024/01/26 10:12:07;;;;;;;;;;;8.80;99.90;;;;;;5064703;28;20381;-66
2024/01/26 10:14:33;;;;;;;0.40;0.30;;;8.80;99.90;;;;;;5066214;28;19920;-66
2024/01/26 10:17:02;;;;;;;;;;;8.80;99.90;;;;;;5067076;28;20102;-66
2024/01/26 10:19:28;;;;;;;0.68;0.50;;;8.70;99.90;;;;;;5066960;28;20410;-66
2024/01/26 10:21:54;;;;;;;0.32;0.30;;;8.70;99.90;;;;;;5065323;28;20036;-66
2024/01/26 10:24:24;;;;;;;2.00;0.30;;;8.70;99.90;;;;;;5065306;28;20033;-66
2024/01/26 10:26:53;;;;;;;0.40;0.30;;;8.70;99.90;;;;;;5066309;28;20727;-66
2024/01/26 10:29:20;;;;;;;0.20;0.20;;;8.70;99.90;;;;;;5063885;28;20039;-65
2024/01/26 10:31:47;;;;;;;0.77;0.35;;;8.70;99.90;;;;;;5065654;28;20036;-66
2024/01/26 10:34:14;;;;;;;0.47;0.30;;;8.80;99.90;;;;;;5062901;28;20400;-66
2024/01/26 10:36:48;;;;;;;2.00;0.40;;;8.80;99.90;;;;;;5066163;28;20044;-66
2024/01/26 10:39:22;;;;;;;0.43;0.35;;;8.90;99.90;;;;;;5062727;28;20048;-66
2024/01/26 10:41:50;;;;;;;0.75;0.40;;;8.90;99.90;;;;;;5065477;28;20037;-66
2024/01/26 10:44:16;;;;;;;0.35;0.20;;;9.00;99.90;;;;;;5062785;28;20040;-66
2024/01/26 10:46:42;;;;;;;0.68;0.30;;;9.10;99.90;;;;;;5065992;28;20075;-66
2024/01/26 10:49:13;;;;;;;0.47;0.20;;;9.20;99.90;;;;;;5055931;28;20044;-66
2024/01/26 10:51:42;;;;;;;0.50;0.20;;;9.20;99.90;;;;;;5067554;28;20061;-66
2024/01/26 10:54:12;;;;;;;1.38;0.95;;;9.20;99.90;;;;;;5066600;28;20033;-66
2024/01/26 10:56:41;;;;;;;0.47;0.32;;;9.20;99.90;;;;;;5066197;28;20075;-66
2024/01/26 10:59:09;;;;;;;0.52;0.32;;;9.20;99.90;;;;;;5063433;28;20071;-66
2024/01/26 11:01:39;;;;;;;0.75;0.40;;;9.20;99.90;;;;;;5066211;28;20041;-66
2024/01/26 11:04:11;;;;;;;0.60;0.43;;;9.20;99.90;;;;;;5062501;28;20045;-66
2024/01/26 11:06:38;;;;;;;0.68;0.40;;;9.20;99.90;;;;;;5064993;28;20136;-66
2024/01/26 11:09:08;;;;;;;1.52;0.35;;;9.20;99.90;;;;;;5065637;28;20101;-66
2024/01/26 11:11:38;;;;;;;2.60;0.57;;;9.20;99.90;;;;;;5071097;28;20044;-66
2024/01/26 11:14:05;;;;;;;0.40;0.32;;;9.30;99.90;;;;;;5061228;28;20064;-66
2024/01/26 11:16:40;;;;;;;1.10;0.40;;;9.30;99.90;;;;;;5066960;28;20449;-66
2024/01/26 11:19:06;;;;;;;0.77;0.52;;;9.30;99.90;;;;;;5059864;28;20086;-66
2024/01/26 11:21:42;;;;;;;;;;;9.30;99.90;;;;;;5065432;28;20510;-66
2024/01/26 11:24:18;;;;;;;0.30;0.30;;;9.20;99.90;;;;;;5060494;28;20408;-66
2024/01/26 11:27:01;;;;;;;0.20;0.20;;;9.20;99.90;;;;;;5063606;28;20068;-66
2024/01/26 11:29:38;;;;;;;0.40;0.30;;;9.20;99.90;;;;;;5062009;28;20072;-67
2024/01/26 11:32:17;;;;;;;0.40;0.40;;;9.10;99.90;;;;;;5056178;28;20044;-66
2024/01/26 11:34:42;;;;;;;0.60;0.50;;;9.20;99.90;;;;;;5063045;28;20044;-66
2024/01/26 11:37:13;;;;;;;;;;;9.20;99.90;;;;;;5059515;28;20606;-66
2024/01/26 11:39:39;;;;;;;2.08;0.50;;;9.20;99.90;;;;;;5064490;28;20295;-66
2024/01/26 11:42:12;;;;;;;0.85;0.35;;;9.20;99.90;;;;;;5064198;28;20164;-67
2024/01/26 11:44:42;;;;;;;1.30;0.63;;;9.20;99.90;;;;;;5064606;28;20083;-66
2024/01/26 11:47:11;;;;;;;3.03;0.70;;;9.30;99.90;;;;;;5051316;28;20454;-65
2024/01/26 11:49:39;;;;;;;2.80;0.60;;;9.30;99.90;;;;;;5058015;28;20118;-67
2024/01/26 11:52:05;;;;;;;0.50;0.45;;;9.30;99.90;;;;;;5062798;28;20040;-68
2024/01/26 11:54:32;;;;;;;0.43;0.38;;;9.30;99.90;;;;;;5060343;28;20045;-67
2024/01/26 11:57:02;;;;;;;0.55;0.40;;;9.30;99.90;;;;;;5063448;28;20044;-66
2024/01/26 11:59:28;;;;;;;0.45;0.40;;;9.30;99.90;;;;;;5049577;28;20052;-67
2024/01/26 12:01:55;;;;;;;1.75;0.55;;;9.30;99.90;;;;;;5065940;28;20039;-67
2024/01/26 12:04:21;;;;;;;1.05;0.63;;;9.40;99.90;;;;;;5059559;28;20043;-65
2024/01/26 12:06:48;;;;;;;1.42;0.73;;;9.40;99.90;;;;;;5065896;28;21118;-67
2024/01/26 12:09:14;;;;;;;0.88;0.40;;;9.40;99.90;;;;;;5068209;28;20052;-67
2024/01/26 15:14:17;;;;;;;12.48;1.83;;;4.90;99.90;;;;;;5051126;28;20033;-88
2024/01/26 15:16:44;;;;;;;11.00;1.77;;;4.90;99.90;;;;;;5030715;28;20043;-89
2024/01/26 15:19:11;;;;;;;13.38;2.10;;;5.00;99.90;;;;;;5034995;28;20041;-91
2024/01/26 15:21:40;;;;;;;11.13;1.95;;;5.00;99.90;;;;;;5033203;28;20040;-89
2024/01/26 15:24:07;;;;;;;15.32;1.98;;;5.00;99.90;;;;;;5031970;28;20037;-89
2024/01/26 15:26:34;;;;;;;12.07;2.00;;;5.00;99.90;;;;;;5033007;28;20495;-88
2024/01/26 15:29:01;;;;;;;12.43;2.17;;;5.00;99.90;;;;;;5030867;28;20938;-88
2024/01/26 15:31:27;;;;;;;17.10;2.20;;;4.90;99.90;;;;;;5031898;28;20041;-89
2024/01/26 15:33:53;;;;;;;12.23;2.03;;;4.90;99.90;;;;;;5033247;28;20048;-88
2024/01/26 15:36:29;;;;;;;10.88;2.05;;;4.90;99.90;;;;;;5028869;28;20848;-88
2024/01/26 15:38:56;;;;;;;12.85;2.17;;;4.90;99.90;;;;;;5030096;28;20518;-89
2024/01/26 15:41:27;;;;;;;16.42;2.58;;;4.80;99.90;;;;;;5035748;28;20041;-89
2024/01/26 15:43:53;;;;;;;14.52;3.38;;;4.80;99.90;;;;;;5037214;28;20041;-89
2024/01/26 15:46:18;;;;;;;18.95;3.13;;;4.90;99.90;;;;;;5028632;28;20056;-89
2024/01/26 15:48:44;;;;;;;19.38;2.67;;;4.80;99.90;;;;;;5033653;28;20040;-88
2024/01/26 15:51:10;;;;;;;15.73;2.35;;;4.90;99.90;;;;;;5035226;28;20033;-89
2024/01/26 15:53:38;;;;;;;10.15;2.88;;;4.80;99.90;;;;;;5037755;28;20387;-90
2024/01/26 15:56:08;;;;;;;18.70;2.22;;;4.80;99.90;;;;;;5045289;28;20447;-89
2024/01/26 15:58:34;;;;;;;14.80;2.30;;;4.80;99.90;;;;;;5045103;28;20041;-89
2024/01/26 16:01:01;;;;;;;13.52;2.25;;;4.70;99.90;;;;;;5041870;28;20044;-92
2024/01/26 16:03:32;;;;;;;8.50;1.88;;;4.70;99.90;;;;;;5039035;28;20483;-90
2024/01/26 16:06:00;;;;;;;19.90;2.70;;;4.70;99.90;;;;;;5042507;28;20051;-89